ダッカ の空港の天気 - METARとTAF

シャージャラル国際空港(ダッカ) ( VGHS / DAC ) - バングラデシュ ダッカ
飛行場実況気象(Metar)
観測時間04/26 22:30 BDT (04/26 16:30 UTC)
風向・風速南南西 5m/s
視程4000m
天気現象煙霧
全天の4割程度の雲 雲底高度 3050m
気温31℃
湿度62%
気圧1006hPa
METARVGHS 261630Z 20009KT 4000 HZ SCT100 31/23 Q1006 NOSIG
過去の天気等 Google飛行場航空写真 Wunderground天気予報

過去48時間のMETAR

飛行場予報(TAF)
発表時間: 4/26 17:00 BDT (4/26 11:00 UTC)
予報対象時間: 26日18時 BDT ~ 28日0時 BDT
風向・風速南西 3m/s
視程3500m
天気現象煙霧
全天の4割程度の雲 雲底高度 460m
全天の8割程度の雲 雲底高度 3050m
26日18時 BDT ~ 27日2時 BDT に一時的に
風向・風速西北西 13m/s 瞬間風速 18m/s
視程2000m
27日2時 BDT ~ 27日4時 BDT に徐々に
風向・風速西南西 2m/s
視程3200m
天気現象煙霧
全天の4割程度の雲 雲底高度 460m
全天の8割程度の雲 雲底高度 3050m
27日10時 BDT ~ 27日12時 BDT に徐々に
風向・風速西南西 4m/s
視程3500m
天気現象煙霧
全天の4割程度の雲 雲底高度 460m
全天の8割程度の雲 雲底高度 3050m
27日12時 BDT ~ 27日21時 BDT に一時的に
風向・風速西北西 13m/s 瞬間風速 18m/s
視程2000m
TAF VGHS 261100Z 2612/2718 22006KT 3500 HZ SCT015 BKN100
TEMPO 2612/2620 29025G35KT 2000 TSRA/RA BKN007 FEW025CB OVC090
BECMG 2620/2622 25004KT 3200 HZ SCT015 BKN100
BECMG 2704/2706 24008KT 3500 HZ SCT015 BKN100
TEMPO 2706/2715 30025G35KT 2000 TSRA/RA BKN007 FEW025CB OVC090